Barkersville, New York
Current Conditions -  °F | °C
As of 1:15 AM on Thursday 29 Jan 2015 (Local Time) from KNY0 Reporting Station
Clear Clear  
Wind Chill:   Ceiling: Unl
Heat Index:   Visibility: 10mi
Dew Point: -8°   Wind: 0mph
Humidity: 55%   Direction: NA
Pressure: 30.27"   Gusts: NA
Location:  43.1097°N, 74.0176°W
Report Text: KNY0 290615Z AUTO 00000KT 10SM CLR M15/M22 A3027 RMK AO2 T11511223
Loading
Personal Weather Stations






























Interactive Weather Map New forecast layout! Learn more

10-Day Weather Forecast

Advertisements
Track Severe Weather on mobile